Morattico, Virginia
Current Conditions -  °F | °C
As of 10:55 PM on Thursday 18 Dec 2014 (Local Time) from KXSA Reporting Station
Overcast Overcast  
Wind Chill: 36°   Ceiling: 10000
Heat Index: 36°   Visibility: 10mi
Dew Point: 22°   Wind: 0mph
Humidity: 58%   Direction: NA
Pressure: 30.12"   Gusts: NA
Location:  37.79°N, 76.63°W
Report Text: KXSA 190355Z AUTO 00000KT 10SM OVC100 02/M05 A3012 RMK AO2 T00211055
Loading
Personal Weather Stations






























Interactive Weather Map New forecast layout! Learn more

10-Day Weather Forecast

Advertisements
Track Severe Weather on mobile